»·PEaware :: N2809K KSFF-CAD4

N2809K :: KSFF-CAD4

FLIGHT INFORMATION

Flight Status: Arrived
Operator: Privately registered:
United States
More flights under this callsign
Pilot: Wayne R. (17783)
Aircraft: CESSNA 152 AEROBAT
(C152)
More flights by this aircraft type
Origin: KSFF Felts
United States
Destination: CAD4 Trail
Canada
More flights between these airports :: More routes between these airports
Route:
File this flight plan on PilotEdge
Remarks:
Altitude:
(Current/Filed)
9,000ft
Speed:
(Current/Filed)
95kts
Departed: 10-Nov-19 05:42 AM
Arrived: 10-Nov-19 07:24 AM
Distance/Time
Traveled:
83nm/1:42
Distance/Time
To Go:
Arrived

Flight Plot

Page will automatically refresh every two minutes.

Flight plan parsing failed; only flown route is shown


Map Options




Map Legend


Flown Route
Filed Route
Departure Airport
Arrival Airport
Navaid (VOR, NDB)
Fix

Horizontal Profiles

Position Reports

Time Latitude Longitude Heading Altitude Ground
Speed
10-Nov-19 05:36 47.684326 -117.314798 322 1955ft 0kts
10-Nov-19 05:37 47.684326 -117.314798 322 1955ft 0kts
10-Nov-19 05:38 47.684326 -117.314798 322 1955ft 0kts
10-Nov-19 05:39 47.684344 -117.314819 321 1955ft 4kts
10-Nov-19 05:40 47.684910 -117.315112 325 1955ft 10kts
10-Nov-19 05:41 47.676957 -117.331965 222 2143ft 85kts
10-Nov-19 05:42 47.656614 -117.327909 94 2646ft 90kts
10-Nov-19 05:43 47.654531 -117.291870 88 3203ft 88kts
10-Nov-19 05:44 47.656248 -117.255042 78 3694ft 89kts
10-Nov-19 05:45 47.668498 -117.224272 47 4151ft 88kts
10-Nov-19 05:46 47.688620 -117.207800 348 4533ft 85kts
10-Nov-19 05:47 47.711391 -117.214046 357 4951ft 83kts
10-Nov-19 05:48 47.733109 -117.217215 346 5528ft 76kts
10-Nov-19 05:49 47.753511 -117.222613 346 6109ft 72kts
10-Nov-19 05:50 47.774448 -117.225965 349 6512ft 84kts
10-Nov-19 05:51 47.800403 -117.230279 349 6518ft 97kts
10-Nov-19 05:52 47.824632 -117.233731 349 6925ft 83kts
10-Nov-19 05:53 47.847001 -117.236685 349 7401ft 77kts
10-Nov-19 05:54 47.867873 -117.238780 349 7874ft 73kts
10-Nov-19 05:55 47.887614 -117.240120 349 8347ft 69kts
10-Nov-19 05:56 47.908442 -117.241297 349 8545ft 89kts
10-Nov-19 05:57 47.934210 -117.243876 349 8536ft 92kts
10-Nov-19 05:58 47.959357 -117.246370 350 8536ft 90kts
10-Nov-19 05:59 47.984235 -117.248773 350 8536ft 89kts
10-Nov-19 06:00 48.008466 -117.255047 343 8536ft 88kts
10-Nov-19 06:01 48.032502 -117.261066 345 8536ft 88kts
10-Nov-19 06:02 48.057103 -117.266642 345 8537ft 91kts
10-Nov-19 06:03 48.082354 -117.272335 345 8535ft 92kts
10-Nov-19 06:04 48.107316 -117.277934 345 8558ft 91kts
10-Nov-19 06:05 48.132686 -117.283636 345 8558ft 92kts
10-Nov-19 06:06 48.158169 -117.289337 345 8557ft 92kts
10-Nov-19 06:07 48.179538 -117.294147 345 8557ft 92kts
10-Nov-19 06:08 48.204322 -117.300354 345 8557ft 92kts
10-Nov-19 06:09 48.229515 -117.306272 345 8557ft 92kts
10-Nov-19 06:10 48.254916 -117.311984 345 8557ft 92kts
10-Nov-19 06:11 48.280175 -117.317706 345 8557ft 92kts
10-Nov-19 06:12 48.305544 -117.323447 345 8557ft 92kts
10-Nov-19 06:13 48.330928 -117.329200 345 8556ft 92kts
10-Nov-19 06:14 48.356360 -117.334942 345 8556ft 92kts
10-Nov-19 06:15 48.381395 -117.340627 345 8555ft 92kts
10-Nov-19 06:16 48.403692 -117.345663 344 8557ft 92kts
10-Nov-19 06:17 48.429267 -117.351557 345 8555ft 94kts
10-Nov-19 06:18 48.455052 -117.357415 345 8556ft 93kts
10-Nov-19 06:19 48.480755 -117.363368 344 8555ft 93kts
10-Nov-19 06:20 48.506422 -117.369370 344 8555ft 92kts
10-Nov-19 06:21 48.531799 -117.375426 346 8554ft 92kts
10-Nov-19 06:22 48.557195 -117.380859 345 8555ft 92kts
10-Nov-19 06:23 48.582769 -117.385841 346 8555ft 92kts
10-Nov-19 06:24 48.608167 -117.391424 345 8555ft 92kts
10-Nov-19 06:25 48.633564 -117.397211 345 8555ft 92kts
10-Nov-19 06:26 48.659013 -117.403064 345 8555ft 92kts
10-Nov-19 06:27 48.684360 -117.408843 345 8555ft 92kts
10-Nov-19 06:28 48.709683 -117.415060 337 8557ft 91kts
10-Nov-19 06:29 48.733417 -117.428403 335 8555ft 91kts
10-Nov-19 06:30 48.757142 -117.441757 336 8555ft 91kts
10-Nov-19 06:31 48.780883 -117.455094 336 8555ft 91kts
10-Nov-19 06:32 48.804600 -117.468426 336 8555ft 91kts
10-Nov-19 06:33 48.828381 -117.481815 336 8554ft 91kts
10-Nov-19 06:34 48.852121 -117.495188 336 8554ft 91kts
10-Nov-19 06:35 48.875749 -117.508530 336 8554ft 91kts
10-Nov-19 06:36 48.899531 -117.521972 336 8554ft 91kts
10-Nov-19 06:37 48.923177 -117.535342 336 8554ft 91kts
10-Nov-19 06:38 48.946879 -117.548771 336 8554ft 91kts
10-Nov-19 06:39 48.970554 -117.562192 335 8554ft 91kts
10-Nov-19 06:40 48.994218 -117.575611 335 8553ft 90kts
10-Nov-19 06:41 49.017710 -117.588962 335 8553ft 90kts
10-Nov-19 06:42 49.041241 -117.602338 335 8553ft 89kts
10-Nov-19 06:43 49.064546 -117.615601 335 8553ft 89kts
10-Nov-19 06:44 49.087917 -117.628910 334 8553ft 89kts
10-Nov-19 06:45 49.110944 -117.642035 334 8557ft 89kts
10-Nov-19 06:46 49.133498 -117.654934 334 8559ft 89kts
10-Nov-19 06:47 49.157228 -117.668480 334 8559ft 90kts
10-Nov-19 06:48 49.180567 -117.681824 334 8559ft 90kts
10-Nov-19 06:49 49.203862 -117.695172 334 8559ft 90kts
10-Nov-19 06:50 49.227252 -117.708582 334 8558ft 90kts
10-Nov-19 06:51 49.250568 -117.721939 334 8558ft 90kts
10-Nov-19 06:52 49.273983 -117.735380 334 8558ft 90kts
10-Nov-19 06:53 49.297325 -117.748822 334 8558ft 90kts
10-Nov-19 06:54 49.320691 -117.762263 334 8558ft 90kts
10-Nov-19 06:55 49.344030 -117.775697 334 8558ft 90kts
10-Nov-19 06:56 49.367358 -117.789153 334 8558ft 90kts
10-Nov-19 06:57 49.390748 -117.802652 334 8558ft 90kts
10-Nov-19 06:58 49.414111 -117.816155 334 8557ft 90kts
10-Nov-19 06:59 49.437455 -117.829655 334 8557ft 90kts
10-Nov-19 07:00 49.460760 -117.843142 334 8555ft 90kts
10-Nov-19 07:01 49.484083 -117.856665 333 8555ft 89kts
10-Nov-19 07:02 49.507507 -117.869397 351 8540ft 95kts
10-Nov-19 07:03 49.520412 -117.829120 66 8562ft 119kts
10-Nov-19 07:04 49.509901 -117.783916 143 8547ft 130kts
10-Nov-19 07:05 49.480705 -117.760246 142 8564ft 109kts
10-Nov-19 07:06 49.453723 -117.740888 142 8566ft 105kts
10-Nov-19 07:07 49.427162 -117.721742 141 8566ft 105kts
10-Nov-19 07:08 49.400586 -117.702949 142 8562ft 105kts
10-Nov-19 07:09 49.373817 -117.683971 141 8565ft 106kts
10-Nov-19 07:10 49.368470 -117.663366 31 8571ft 66kts
10-Nov-19 07:11 49.382878 -117.645296 37 8563ft 67kts
10-Nov-19 07:12 49.363555 -117.626322 168 8565ft 110kts
10-Nov-19 07:13 49.328634 -117.624551 170 8138ft 134kts
10-Nov-19 07:14 49.290649 -117.622281 170 7637ft 137kts
10-Nov-19 07:16 49.253291 -117.620213 170 7136ft 133kts
10-Nov-19 07:17 49.217287 -117.618180 169 6636ft 127kts
10-Nov-19 07:18 49.182026 -117.616263 169 6169ft 122kts
10-Nov-19 07:19 49.149591 -117.614416 168 5850ft 114kts
10-Nov-19 07:20 49.118045 -117.612700 169 5568ft 116kts
10-Nov-19 07:21 49.084983 -117.612324 179 4657ft 130kts
10-Nov-19 07:22 49.052883 -117.620520 186 3083ft 82kts
10-Nov-19 07:23 49.043841 -117.609512 24 1884ft 106kts
10-Nov-19 07:24 49.060685 -117.609192 354 1429ft 3kts
10-Nov-19 07:25 49.060762 -117.609270 292 1429ft 0kts
10-Nov-19 07:26 49.060762 -117.609270 292 1429ft 0kts
10-Nov-19 07:27 49.060762 -117.609270 292 1429ft 0kts
10-Nov-19 07:28 49.060762 -117.609270 292 1429ft 0kts
10-Nov-19 07:29 49.060762 -117.609270 292 1429ft 0kts
10-Nov-19 07:30 49.060762 -117.609270 292 1429ft 0kts
10-Nov-19 07:31 49.060762 -117.609270 292 1429ft 0kts
10-Nov-19 07:32 49.060762 -117.609270 292 1429ft 0kts

Navigation Log

Ident Type
Flight plan parsing failed, navigation log unavailable